Sitka Rocky Gutierrez Airport
PASI : now visible

Airfield :











YOU CAN JOIN US ON...

 
LOGIN :

Register | Disclaimer

   EN    FR    IT 

 









Legend :    VFR   Marginal VFR   IFR   Intensive IFR   Very Intensive IFR
Visi :
Ceiling :
>= 8 km
>= 3000ft
5 to 8 km
1000 to 3000 ft
1500m to 5 km
500 to 1000 ft
800 to 1500m
200 to 500 ft
< 800m
< 200 ft
Symbols :   Thunderstorms  Fog  Heavy snow  Heavy precipitations  Wind > 20 kt






- Airport Elevation : 21 ft
- IATA code : SIT


PASI - Sitka Rocky Gutierrez

CURRENT METAR :
  • 280553Z 11010KT 10SM BKN043 BKN050 03/00 A2966 RMK AO2 RAE03UPB03E04 SLP042 P0000 60010 T00280000 10033 20011 55000

EXPIRED METARs :
  • 280453Z 10009KT 7SM -RA BKN026 BKN038 OVC049 02/00 A2965 RMK AO2 RAE34B52UPB21E23SNE21B23E25 SLP039 P0001 T00170000
  • 280431Z 11007KT 7SM -RA FEW033 BKN043 OVC055 02/00 A2964 RMK AO2 UPB21E23SNE21B23E25 P0001 T00170000
  • 280412Z 10008KT 4SM -SNRA BR SCT009 OVC016 01/00 A2965 RMK AO2 P0001 T00110000
  • 280400Z 15011KT 2SM -SNRA SCT009 OVC013 01/00 A2965 RMK AO2 P0001 T00110000

TAF PASI
Valid from the 28 at 06:00 until the 29 at 06:00 UTC


280547Z 2806/2906 11010KT P6SM VCSH SCT025 OVC035
TEMPO 2806/2810 5SM -SHRASN BKN025 OVC035
FM282100 15015G25KT 6SM -SHRA BKN025 OVC035



MET'MAP, your aeronautical weather chart ! - Copyright ORBIFLY December 2007 - Disclaimer

ORBIFLY MET'MAP TEAM :

Programming & Development : Alexandra Zaïnal
Concept & original design : Baudouin d'Aumeries
Assistance for programming : Marc-Olivier Méhu
Technical & hardware support : Manuel Goepfert

Contact : metmap@orbifly.com




SOURCES & CREDITS :

   NOAA       Earth
Advisory